Time;durP1;ratioP1;P1;durP2;ratioP2;P2;SDS_P1;SDS_P2;PMS_P1;PMS_P2;Temp;Humidity;BMP_temperature;BMP_pressure;BME280_temperature;BME280_humidity;BME280_pressure;Samples;Min_cycle;Max_cycle;Signal;HPM_P1;HPM_P2
2023/01/28 00:00:08;;;;;;;1.25;1.15;;;;;;;-1.52;86.66;92612.50;5065036;28;20021;-49
2023/01/28 00:02:34;;;;;;;0.73;0.73;;;;;;;-1.46;86.89;92609.81;5070511;28;20032;-49
2023/01/28 00:04:59;;;;;;;1.38;1.27;;;;;;;-1.40;86.34;92626.78;5068416;28;20012;-48
2023/01/28 00:07:24;;;;;;;1.00;1.00;;;;;;;-1.45;86.87;92613.25;5066950;28;20507;-49
2023/01/28 00:09:50;;;;;;;2.20;1.60;;;;;;;-1.49;87.30;92627.03;5067698;28;20518;-49
2023/01/28 00:12:16;;;;;;;10.10;2.33;;;;;;;-1.46;87.02;92625.31;5062569;28;20044;-49
2023/01/28 00:14:42;;;;;;;1.30;1.20;;;;;;;-1.42;86.59;92626.53;5066095;28;20060;-49
2023/01/28 00:17:07;;;;;;;1.80;1.55;;;;;;;-1.42;86.88;92631.22;5063330;28;20071;-49
2023/01/28 00:19:33;;;;;;;3.13;1.20;;;;;;;-1.55;87.23;92626.28;5060591;28;20397;-49
2023/01/28 00:21:58;;;;;;;2.92;1.60;;;;;;;-1.57;87.15;92634.16;5071696;28;20024;-48
2023/01/28 00:24:23;;;;;;;5.57;2.28;;;;;;;-1.47;87.43;92631.97;5068101;28;20097;-49
2023/01/28 00:26:49;;;;;;;3.08;1.77;;;;;;;-1.58;87.83;92616.44;5065653;28;20419;-49
2023/01/28 00:29:14;;;;;;;1.33;1.23;;;;;;;-1.56;87.96;92639.06;5066466;28;20408;-48
2023/01/28 00:31:40;;;;;;;3.80;2.13;;;;;;;-1.63;88.30;92620.63;5068962;28;20139;-48
2023/01/28 00:34:05;;;;;;;1.42;0.90;;;;;;;-1.65;88.68;92636.63;5070661;28;20035;-48
2023/01/28 00:36:32;;;;;;;1.73;1.30;;;;;;;-1.42;87.97;92633.91;5069390;28;20028;-48
2023/01/28 00:38:58;;;;;;;1.10;0.90;;;;;;;-1.48;88.35;92641.31;5072557;28;20107;-49
2023/01/28 00:41:27;;;;;;;1.20;1.10;;;;;;;-1.50;88.14;92641.81;5062937;28;20082;-48
2023/01/28 00:43:52;;;;;;;2.35;1.55;;;;;;;-1.59;88.74;92645.50;5063825;28;20385;-48
2023/01/28 00:46:19;;;;;;;5.35;1.60;;;;;;;-1.52;88.38;92638.09;5060693;28;20060;-48
2023/01/28 00:48:44;;;;;;;2.53;2.00;;;;;;;-1.52;88.64;92648.94;5063134;28;20035;-48
2023/01/28 00:51:11;;;;;;;1.92;1.70;;;;;;;-1.59;89.72;92645.50;5061562;28;20021;-48
2023/01/28 00:53:37;;;;;;;1.50;1.13;;;;;;;-1.66;89.81;92653.34;5068184;28;20533;-48
2023/01/28 00:56:04;;;;;;;1.67;0.98;;;;;;;-1.57;89.77;92653.84;5060294;28;20017;-48
2023/01/28 00:58:30;;;;;;;2.40;1.52;;;;;;;-1.65;90.02;92649.41;5065797;28;20411;-47
2023/01/28 01:00:56;;;;;;;3.28;2.10;;;;;;;-1.66;89.42;92654.09;5066426;28;20119;-48
2023/01/28 01:03:21;;;;;;;2.80;2.05;;;;;;;-1.60;89.68;92665.66;5062290;28;20119;-48
2023/01/28 01:05:47;;;;;;;1.75;1.40;;;;;;;-1.59;89.74;92659.03;5056139;28;20024;-48
2023/01/28 01:08:13;;;;;;;1.30;1.20;;;;;;;-1.58;88.76;92660.47;5066011;28;20043;-48
2023/01/28 01:10:39;;;;;;;0.75;0.75;;;;;;;-1.54;88.92;92665.66;5064106;28;20077;-48
2023/01/28 01:13:05;;;;;;;1.42;1.02;;;;;;;-1.55;89.00;92670.34;5067229;28;20027;-49
2023/01/28 01:15:31;;;;;;;2.17;1.63;;;;;;;-1.53;88.96;92669.84;5056550;28;20041;-49
2023/01/28 01:17:57;;;;;;;0.88;0.80;;;;;;;-1.55;88.77;92677.72;5057667;28;20547;-49
2023/01/28 01:20:25;;;;;;;1.00;1.00;;;;;;;-1.55;88.80;92672.31;5064174;28;20029;-48
2023/01/28 01:22:51;;;;;;;0.60;0.60;;;;;;;-1.63;89.43;92676.72;5059394;28;20034;-49
2023/01/28 01:25:17;;;;;;;0.98;0.82;;;;;;;-1.53;89.32;92677.97;5064595;28;20032;-49
2023/01/28 01:27:44;;;;;;;0.77;0.70;;;;;;;-1.58;89.52;92668.59;5062274;28;20021;-48
2023/01/28 01:30:11;;;;;;;0.63;0.63;;;;;;;-1.47;88.74;92681.41;5051889;28;20025;-50
2023/01/28 01:32:36;;;;;;;0.55;0.55;;;;;;;-1.50;88.38;92668.88;5070025;28;20040;-49
2023/01/28 01:35:05;;;;;;;0.95;0.85;;;;;;;-1.56;88.93;92674.25;5066261;28;20032;-50
2023/01/28 01:37:31;;;;;;;2.78;1.00;;;;;;;-1.60;89.13;92673.03;5073770;28;20017;-49
2023/01/28 01:39:56;;;;;;;0.90;0.90;;;;;;;-1.51;89.25;92670.09;5059973;28;20032;-49
2023/01/28 01:42:24;;;;;;;0.70;0.70;;;;;;;-1.57;89.15;92675.50;5057123;28;20099;-49
2023/01/28 01:44:56;;;;;;;3.13;1.02;;;;;;;-1.61;89.15;92685.84;5064839;28;20446;-49
2023/01/28 01:47:39;;;;;;;0.70;0.70;;;;;;;-1.56;89.47;92676.25;5056540;28;20531;-50
2023/01/28 01:50:12;;;;;;;0.70;0.70;;;;;;;-1.60;88.95;92683.84;5060802;28;20039;-49
2023/01/28 01:52:39;;;;;;;69.65;32.92;;;;;;;-1.61;89.55;92690.50;5065337;28;20025;-50
2023/01/28 01:55:09;;;;;;;66.10;29.70;;;;;;;-1.61;89.45;92688.53;5080536;28;20053;-50
2023/01/28 01:57:36;;;;;;;27.52;15.70;;;;;;;-1.73;90.40;92676.19;5065898;28;20028;-48
2023/01/28 02:00:04;;;;;;;8.10;5.75;;;;;;;-1.62;89.53;92689.00;5066630;28;20036;-49
2023/01/28 02:02:40;;;;;;;;;;;;;;;-1.67;89.64;92693.19;5078484;28;20020;-48
2023/01/28 02:05:07;;;;;;;3.25;2.25;;;;;;;-1.62;89.87;92687.06;5068005;28;19912;-48
2023/01/28 02:07:33;;;;;;;0.93;0.93;;;;;;;-1.50;89.45;92700.59;5076184;28;20099;-50
2023/01/28 02:09:59;;;;;;;3.03;2.10;;;;;;;-1.52;89.15;92692.25;5068440;28;20086;-49
2023/01/28 02:12:32;;;;;;;2.08;1.60;;;;;;;-1.54;89.45;92690.03;5068104;28;20048;-49
2023/01/28 02:15:09;;;;;;;2.17;1.85;;;;;;;-1.45;89.09;92691.75;5066510;28;20032;-50
2023/01/28 02:17:35;;;;;;;1.27;1.17;;;;;;;-1.58;89.74;92692.22;5075758;28;20058;-50
2023/01/28 02:20:12;;;;;;;1.05;0.90;;;;;;;-1.47;89.16;92688.81;5067148;28;20107;-50
2023/01/28 02:23:15;;;;;;;1.75;0.90;;;;;;;-1.57;89.51;92686.34;5066604;28;20029;-50
2023/01/28 02:26:01;;;;;;;1.25;0.90;;;;;;;-1.66;89.54;92693.94;5068747;28;20129;-49
2023/01/28 02:28:39;;;;;;;0.95;0.88;;;;;;;-1.58;89.53;92689.50;5069512;28;20131;-51
2023/01/28 02:31:10;;;;;;;0.90;0.90;;;;;;;-1.63;89.63;92701.09;5062309;28;20127;-49
2023/01/28 02:33:48;;;;;;;1.20;1.10;;;;;;;-1.60;89.97;92697.38;5072876;28;20115;-48
2023/01/28 02:36:43;;;;;;;0.60;0.60;;;;;;;-1.59;89.71;92693.47;5066956;28;20075;-49
2023/01/28 02:39:37;;;;;;;1.23;0.80;;;;;;;-1.49;89.45;92699.41;5070395;28;20504;-49
2023/01/28 02:42:08;;;;;;;7.43;1.00;;;;;;;-1.60;89.91;92692.72;5064141;28;20037;-49
2023/01/28 02:44:33;;;;;;;0.70;0.70;;;;;;;-1.56;89.51;92701.31;5068032;28;20055;-48
2023/01/28 02:49:51;;;;;;;1.35;0.93;;;;;;;-1.53;89.52;92699.63;5099434;27;20035;-49
2023/01/28 02:56:00;;;;;;;0.50;0.50;;;;;;;-1.57;89.21;92697.16;5071027;28;20116;-49
2023/01/28 02:58:28;;;;;;;0.70;0.70;;;;;;;-1.56;89.64;92695.19;5063735;28;20031;-52
2023/01/28 03:01:07;;;;;;;0.73;0.73;;;;;;;-1.56;89.07;92698.63;5064474;28;20025;-51
2023/01/28 03:03:56;;;;;;;0.75;0.75;;;;;;;-1.49;89.33;92702.81;5060535;28;20043;-50
2023/01/28 03:06:33;;;;;;;0.60;0.60;;;;;;;-1.52;88.92;92697.66;5069257;28;20036;-48
2023/01/28 03:36:52;;;;;;;6.15;1.35;;;;;;;-1.54;88.62;92701.56;5055810;28;20055;-50
2023/01/28 03:39:22;;;;;;;3.60;2.13;;;;;;;-1.58;88.70;92703.78;5067861;28;20035;-50
2023/01/28 03:42:13;;;;;;;3.90;1.95;;;;;;;-1.48;88.33;92708.97;5055369;28;20029;-50
2023/01/28 03:44:54;;;;;;;2.10;1.30;;;;;;;-1.56;88.44;92701.31;5067151;28;20032;-50
2023/01/28 03:47:23;;;;;;;1.58;1.15;;;;;;;-1.45;88.01;92705.31;5064277;28;20060;-49
2023/01/28 03:49:51;;;;;;;0.82;0.82;;;;;;;-1.49;87.89;92700.09;5060847;28;20024;-49
2023/01/28 03:52:19;;;;;;;0.77;0.70;;;;;;;-1.50;88.25;92706.03;5067882;28;20158;-49
2023/01/28 03:54:48;;;;;;;2.27;1.27;;;;;;;-1.55;88.31;92704.78;5060256;28;20033;-48
2023/01/28 03:57:21;;;;;;;0.90;0.90;;;;;;;-1.47;88.43;92707.75;5067982;28;20024;-48
2023/01/28 03:59:48;;;;;;;1.05;0.88;;;;;;;-1.50;87.81;92706.03;5058232;28;20036;-48
2023/01/28 04:02:14;;;;;;;72.53;29.33;;;;;;;-1.62;87.95;92705.25;5064846;28;20025;-48
2023/01/28 04:04:41;;;;;;;80.95;30.85;;;;;;;-1.57;88.59;92713.41;5065947;28;20099;-48
2023/01/28 04:07:07;;;;;;;73.18;29.98;;;;;;;-1.58;88.35;92717.31;5069773;28;20058;-48
2023/01/28 04:09:36;;;;;;;64.18;28.88;;;;;;;-1.44;88.24;92717.59;5065788;28;20399;-48
2023/01/28 04:12:02;;;;;;;;;;;;;;;-1.47;88.95;92724.00;5067651;28;20034;-48
2023/01/28 04:14:28;;;;;;;50.55;21.45;;;;;;;-1.48;88.27;92719.81;5066033;28;19995;-49
2023/01/28 04:16:56;;;;;;;36.83;17.42;;;;;;;-1.53;88.28;92723.97;5068244;28;20112;-48
2023/01/28 04:19:22;;;;;;;33.72;15.02;;;;;;;-1.48;88.31;92720.56;5064851;28;20032;-49
2023/01/28 04:21:48;;;;;;;28.70;14.85;;;;;;;-1.43;88.02;92727.22;5061891;28;20020;-49
2023/01/28 04:24:14;;;;;;;17.77;8.88;;;;;;;-1.48;88.66;92728.66;5072935;28;20114;-49
2023/01/28 04:26:39;;;;;;;5.35;3.53;;;;;;;-1.44;87.98;92737.28;5064422;28;20056;-49
2023/01/28 04:29:05;;;;;;;3.88;2.90;;;;;;;-1.49;88.44;92723.75;5068929;28;20070;-48
2023/01/28 04:31:31;;;;;;;2.55;2.22;;;;;;;-1.40;87.74;92731.63;5066926;28;20053;-48
2023/01/28 04:33:57;;;;;;;4.10;3.67;;;;;;;-1.37;87.54;92739.53;5071603;28;20016;-49
2023/01/28 04:36:23;;;;;;;4.32;1.40;;;;;;;-1.42;88.00;92739.50;5060398;28;20020;-48
2023/01/28 04:38:48;;;;;;;1.00;1.00;;;;;;;-1.41;87.79;92738.28;5070427;28;20104;-49
2023/01/28 04:41:14;;;;;;;1.45;1.15;;;;;;;-1.45;88.08;92737.78;5062500;28;20024;-48
2023/01/28 04:43:39;;;;;;;0.90;0.90;;;;;;;-1.49;88.73;92735.31;5065051;28;20108;-49
2023/01/28 04:46:05;;;;;;;0.73;0.73;;;;;;;-1.56;89.15;92733.81;5069869;28;20016;-51
2023/01/28 04:48:30;;;;;;;1.65;1.55;;;;;;;-1.50;88.98;92749.34;5058578;28;20027;-48
2023/01/28 04:50:56;;;;;;;1.17;0.95;;;;;;;-1.51;89.08;92745.88;5068456;28;20025;-47
2023/01/28 04:53:22;;;;;;;0.85;0.85;;;;;;;-1.50;89.90;92746.63;5058842;28;20108;-49
2023/01/28 04:55:47;;;;;;;1.65;1.50;;;;;;;-1.48;89.62;92746.88;5063407;28;20028;-49
2023/01/28 04:58:13;;;;;;;3.80;1.70;;;;;;;-1.52;89.19;92742.44;5060903;28;20105;-48
2023/01/28 05:00:38;;;;;;;2.67;1.73;;;;;;;-1.45;90.02;92754.03;5057361;28;20476;-49
2023/01/28 05:03:04;;;;;;;3.75;2.58;;;;;;;-1.36;89.04;92753.78;5055004;28;20467;-48
2023/01/28 05:05:29;;;;;;;2.85;1.23;;;;;;;-1.36;89.16;92753.78;5061258;28;20020;-47
2023/01/28 05:07:56;;;;;;;2.03;1.30;;;;;;;-1.44;89.38;92758.19;5066898;28;20415;-48
2023/01/28 05:10:22;;;;;;;2.47;1.95;;;;;;;-1.56;89.75;92754.75;5060693;28;20083;-48
2023/01/28 05:12:48;;;;;;;1.48;1.38;;;;;;;-1.48;89.37;92755.75;5064272;28;20062;-48
2023/01/28 05:15:15;;;;;;;0.93;0.93;;;;;;;-1.56;90.21;92754.75;5057012;28;20492;-49
2023/01/28 05:17:41;;;;;;;4.13;2.80;;;;;;;-1.45;89.39;92762.88;5059166;28;20036;-48
2023/01/28 05:20:08;;;;;;;3.58;1.38;;;;;;;-1.46;89.49;92768.78;5061268;28;20020;-48
2023/01/28 05:22:33;;;;;;;5.38;2.00;;;;;;;-1.52;90.03;92771.47;5067677;28;20039;-48
2023/01/28 05:24:59;;;;;;;1.88;1.55;;;;;;;-1.52;90.50;92768.78;5063829;28;20021;-48
2023/01/28 05:27:24;;;;;;;1.20;1.10;;;;;;;-1.49;89.44;92777.91;5066014;28;20024;-49
2023/01/28 05:29:49;;;;;;;2.35;2.15;;;;;;;-1.46;90.00;92771.50;5064526;28;20036;-49
2023/01/28 05:32:15;;;;;;;3.42;2.17;;;;;;;-1.50;89.75;92768.28;5067505;28;20079;-49
2023/01/28 05:34:40;;;;;;;2.35;1.90;;;;;;;-1.51;89.63;92778.38;5062615;28;20040;-51
2023/01/28 05:37:06;;;;;;;2.35;2.00;;;;;;;-1.57;89.61;92778.34;5064729;28;20074;-48
2023/01/28 05:39:31;;;;;;;2.35;2.03;;;;;;;-1.56;90.05;92779.81;5070830;28;20035;-52
2023/01/28 05:41:57;;;;;;;2.55;2.25;;;;;;;-1.50;90.28;92776.41;5062905;28;20382;-47
2023/01/28 05:44:22;;;;;;;1.70;1.60;;;;;;;-1.46;89.79;92783.06;5060310;28;20181;-48
2023/01/28 05:46:48;;;;;;;1.90;1.60;;;;;;;-1.45;90.56;92783.81;5057475;28;20025;-48
2023/01/28 05:49:13;;;;;;;2.40;1.83;;;;;;;-1.31;89.53;92793.69;5065368;28;20020;-49
2023/01/28 05:51:39;;;;;;;3.35;2.22;;;;;;;-1.41;89.60;92790.47;5064408;28;20029;-48
2023/01/28 05:54:06;;;;;;;2.42;2.10;;;;;;;-1.26;89.36;92796.41;5062345;28;20539;-48
2023/01/28 05:56:31;;;;;;;7.35;3.78;;;;;;;-1.27;90.09;92799.59;5061678;28;20021;-48
2023/01/28 05:58:57;;;;;;;52.10;23.85;;;;;;;-1.29;90.51;92802.06;5064223;28;20516;-48
2023/01/28 06:01:22;;;;;;;23.27;13.32;;;;;;;-1.23;89.67;92806.25;5065028;28;20118;-47
2023/01/28 06:03:48;;;;;;;5.10;3.60;;;;;;;-1.17;90.13;92804.28;5063552;28;20043;-48
2023/01/28 06:06:13;;;;;;;4.50;3.15;;;;;;;-1.13;89.49;92804.06;5061690;28;20032;-49
2023/01/28 06:08:41;;;;;;;14.35;7.68;;;;;;;-1.19;89.49;92806.75;5059986;28;20021;-48
2023/01/28 06:11:06;;;;;;;3.55;3.17;;;;;;;-1.08;89.36;92806.78;5068225;28;20020;-48
2023/01/28 06:13:32;;;;;;;4.75;3.05;;;;;;;-1.08;89.41;92809.50;5066941;28;20035;-48
2023/01/28 06:15:57;;;;;;;13.50;7.32;;;;;;;-1.08;90.01;92820.31;5060824;28;20717;-48
2023/01/28 06:18:23;;;;;;;5.78;3.97;;;;;;;-1.09;90.08;92818.13;5065760;28;20432;-48
2023/01/28 06:20:50;;;;;;;7.22;3.78;;;;;;;-1.10;90.67;92832.88;5064523;28;20535;-49
2023/01/28 06:23:16;;;;;;;8.43;5.20;;;;;;;-1.03;89.68;92829.69;5060111;28;20415;-48
2023/01/28 06:25:41;;;;;;;8.77;5.10;;;;;;;-1.04;89.78;92823.53;5061589;28;20040;-47
2023/01/28 06:28:06;;;;;;;9.10;4.90;;;;;;;-0.93;89.30;92828.22;5062507;28;20021;-47
2023/01/28 06:30:32;;;;;;;7.05;3.97;;;;;;;-0.77;88.19;92833.69;5064694;28;20557;-49
2023/01/28 06:32:57;;;;;;;5.07;3.92;;;;;;;-0.91;88.29;92839.34;5065761;28;20488;-48
2023/01/28 06:35:23;;;;;;;4.35;3.08;;;;;;;-0.74;88.82;92837.41;5063353;28;20033;-47
2023/01/28 06:37:49;;;;;;;4.25;2.50;;;;;;;-0.69;88.01;92842.06;5062216;28;20024;-48
2023/01/28 06:40:16;;;;;;;4.72;3.63;;;;;;;-0.64;87.46;92846.03;5071858;28;20048;-48
2023/01/28 06:42:41;;;;;;;2.70;2.20;;;;;;;-0.66;87.11;92845.78;5060406;28;20033;-47
2023/01/28 06:45:07;;;;;;;6.68;3.50;;;;;;;-0.68;86.69;92851.69;5064244;28;20035;-48
2023/01/28 06:47:32;;;;;;;6.90;3.42;;;;;;;-0.65;88.05;92853.41;5064216;28;20103;-49
2023/01/28 06:49:58;;;;;;;5.22;3.60;;;;;;;-0.57;88.15;92859.09;5065457;28;20021;-48
2023/01/28 06:52:23;;;;;;;10.18;6.05;;;;;;;-0.55;86.52;92864.75;5067833;28;20082;-47
2023/01/28 06:54:49;;;;;;;6.85;4.20;;;;;;;-0.59;86.17;92866.97;5063646;28;20029;-48
2023/01/28 06:57:14;;;;;;;4.60;3.03;;;;;;;-0.47;86.83;92865.75;5066358;28;20028;-49
2023/01/28 06:59:40;;;;;;;7.32;3.88;;;;;;;-0.34;86.60;92866.75;5060884;28;20025;-49
2023/01/28 07:02:05;;;;;;;6.93;4.70;;;;;;;-0.39;85.73;92872.91;5065550;28;20024;-49
2023/01/28 07:04:31;;;;;;;4.20;3.13;;;;;;;-0.35;85.99;92873.41;5063065;28;20024;-48
2023/01/28 07:06:56;;;;;;;2.97;2.50;;;;;;;-0.28;86.31;92875.63;5068783;28;20036;-48
2023/01/28 07:09:22;;;;;;;2.92;2.20;;;;;;;-0.19;85.61;92885.50;5059093;28;20536;-49
2023/01/28 07:11:47;;;;;;;3.92;2.30;;;;;;;-0.22;86.55;92883.78;5059993;28;20530;-49
2023/01/28 07:14:12;;;;;;;2.58;2.30;;;;;;;-0.21;86.70;92896.09;5061684;28;20020;-48
2023/01/28 07:16:38;;;;;;;3.05;2.40;;;;;;;-0.26;86.50;92894.13;5058862;28;20078;-47
2023/01/28 07:19:03;;;;;;;5.47;4.10;;;;;;;-0.32;85.89;92901.50;5061111;28;20021;-49
2023/01/28 07:21:29;;;;;;;3.05;2.33;;;;;;;-0.33;86.37;92903.50;5059348;28;20429;-48
2023/01/28 07:23:54;;;;;;;2.78;2.35;;;;;;;-0.16;86.35;92906.22;5062607;28;20051;-49
2023/01/28 07:26:20;;;;;;;4.00;2.72;;;;;;;-0.10;84.76;92915.84;5056892;28;20012;-47
2023/01/28 07:28:45;;;;;;;5.88;4.60;;;;;;;-0.16;85.28;92915.09;5058002;28;20021;-49
2023/01/28 07:31:11;;;;;;;5.85;3.90;;;;;;;-0.09;85.39;92914.59;5064198;28;20040;-48
2023/01/28 07:33:36;;;;;;;8.80;5.05;;;;;;;-0.13;84.92;92924.22;5058628;28;20106;-48
2023/01/28 07:36:02;;;;;;;6.80;3.78;;;;;;;-0.14;84.77;92920.78;5060774;28;20132;-48
2023/01/28 07:38:28;;;;;;;4.68;3.55;;;;;;;-0.13;85.05;92927.66;5063972;28;20024;-50
2023/01/28 07:40:53;;;;;;;4.40;3.03;;;;;;;-0.04;85.11;92923.97;5069499;28;20048;-48
2023/01/28 07:43:18;;;;;;;4.15;3.30;;;;;;;-0.07;85.80;92930.41;5067151;28;20033;-49
2023/01/28 07:45:44;;;;;;;5.57;3.75;;;;;;;-0.23;85.83;92928.41;5069510;28;20020;-49
2023/01/28 07:48:11;;;;;;;5.35;3.25;;;;;;;-0.10;85.31;92932.13;5064484;28;20028;-48
2023/01/28 07:50:37;;;;;;;4.28;2.67;;;;;;;-0.22;86.22;92930.59;5064806;28;20024;-50
2023/01/28 07:53:04;;;;;;;8.43;3.58;;;;;;;-0.30;86.22;92929.63;5064827;28;20017;-48
2023/01/28 07:55:29;;;;;;;5.22;2.92;;;;;;;-0.27;87.11;92928.66;5060735;28;20040;-48
2023/01/28 07:57:57;;;;;;;7.07;4.43;;;;;;;-0.31;87.24;92930.13;5066487;28;20416;-48
2023/01/28 08:00:25;;;;;;;2.65;1.98;;;;;;;-0.27;86.93;92936.78;5063118;28;20534;-48
2023/01/28 08:02:58;;;;;;;9.07;5.75;;;;;;;-0.20;87.06;92939.03;5056420;28;20078;-50
2023/01/28 08:05:26;;;;;;;10.55;5.85;;;;;;;-0.25;86.62;92936.28;5065932;28;20101;-48
2023/01/28 08:07:51;;;;;;;9.27;5.00;;;;;;;-0.19;87.12;92935.06;5062675;28;20066;-50
2023/01/28 08:10:18;;;;;;;5.30;4.32;;;;;;;-0.21;87.74;92944.91;5060105;28;20516;-48
2023/01/28 08:12:53;;;;;;;7.80;5.03;;;;;;;-0.19;87.37;92943.19;5065446;28;20028;-48
2023/01/28 08:15:18;;;;;;;3.78;3.08;;;;;;;-0.02;87.18;92938.53;5060973;28;20830;-49
2023/01/28 08:17:44;;;;;;;3.95;3.50;;;;;;;0.00;85.84;92946.91;5064377;28;20021;-49
2023/01/28 08:20:10;;;;;;;3.70;2.67;;;;;;;-0.30;86.51;92948.63;5060940;28;20032;-48
2023/01/28 08:22:35;;;;;;;4.25;2.70;;;;;;;-0.24;87.30;92948.63;5067455;28;20082;-50
2023/01/28 08:25:01;;;;;;;3.42;2.70;;;;;;;-0.37;87.75;92948.38;5059210;28;20024;-48
2023/01/28 08:27:26;;;;;;;3.70;3.25;;;;;;;-0.41;88.35;92956.72;5056364;28;20177;-49
2023/01/28 08:29:52;;;;;;;6.03;4.63;;;;;;;-0.41;88.90;92964.84;5060351;28;20032;-49
2023/01/28 08:32:17;;;;;;;5.22;4.40;;;;;;;-0.43;88.86;92969.28;5061127;28;20056;-48
2023/01/28 08:34:42;;;;;;;5.13;4.15;;;;;;;-0.36;88.37;92977.69;5065279;28;20035;-47
2023/01/28 08:37:08;;;;;;;4.93;3.72;;;;;;;-0.24;87.55;92979.19;5063090;28;20067;-48
2023/01/28 08:39:33;;;;;;;4.30;3.28;;;;;;;-0.34;87.43;92972.53;5062035;28;20043;-49
2023/01/28 08:41:59;;;;;;;3.28;2.97;;;;;;;-0.35;88.20;92976.47;5063105;28;20492;-48
2023/01/28 08:44:24;;;;;;;4.90;2.95;;;;;;;-0.30;88.00;92975.72;5059302;28;20037;-48
2023/01/28 08:46:50;;;;;;;5.55;3.72;;;;;;;-0.28;87.53;92978.69;5059798;28;20021;-48
2023/01/28 08:49:15;;;;;;;5.63;3.50;;;;;;;-0.23;88.48;92975.25;5056512;28;20050;-49
2023/01/28 08:51:40;;;;;;;6.13;4.25;;;;;;;-0.25;87.19;92979.69;5066439;28;20234;-48
2023/01/28 08:54:06;;;;;;;3.40;3.08;;;;;;;-0.11;86.84;92978.75;5058836;28;20039;-48
2023/01/28 08:56:31;;;;;;;9.32;4.13;;;;;;;-0.16;86.78;92982.94;5063643;28;20027;-49
2023/01/28 08:58:57;;;;;;;4.03;3.63;;;;;;;-0.10;86.37;92983.66;5064384;28;20492;-49
2023/01/28 09:01:24;;;;;;;3.70;3.17;;;;;;;-0.21;86.29;92991.78;5060091;28;20025;-48
2023/01/28 09:03:50;;;;;;;6.00;4.60;;;;;;;-0.13;86.87;92986.63;5064599;28;20036;-49
2023/01/28 09:06:15;;;;;;;5.03;3.90;;;;;;;-0.11;86.50;92984.88;5063415;28;20033;-49
2023/01/28 09:08:41;;;;;;;6.55;3.65;;;;;;;-0.11;86.31;92984.16;5065114;28;20051;-48
2023/01/28 09:11:07;;;;;;;4.60;3.38;;;;;;;-0.01;86.31;92983.44;5065772;28;20040;-49
2023/01/28 09:13:32;;;;;;;4.43;3.63;;;;;;;0.14;86.79;92988.63;5063405;28;20685;-48
2023/01/28 09:15:58;;;;;;;3.88;3.05;;;;;;;0.13;86.41;92989.13;5060920;28;20035;-49
2023/01/28 09:18:23;;;;;;;5.25;3.97;;;;;;;0.19;85.98;92984.44;5062626;28;20130;-48
2023/01/28 09:20:48;;;;;;;5.13;4.07;;;;;;;0.32;85.07;92985.44;5064952;28;20028;-48
2023/01/28 09:23:14;;;;;;;6.22;4.78;;;;;;;0.16;85.60;92993.56;5066209;28;20032;-50
2023/01/28 09:25:39;;;;;;;6.75;4.47;;;;;;;-0.02;87.02;92971.09;5059582;28;20405;-49
2023/01/28 09:28:05;;;;;;;3.38;3.08;;;;;;;0.23;85.96;92977.53;5061987;28;20032;-49
2023/01/28 09:30:31;;;;;;;4.88;3.97;;;;;;;0.30;86.00;92987.16;5059421;28;20029;-49
2023/01/28 09:32:59;;;;;;;3.67;3.30;;;;;;;0.24;85.77;92979.00;5062955;28;20082;-50
2023/01/28 09:35:25;;;;;;;4.03;3.72;;;;;;;0.42;86.00;92985.91;5066243;28;20082;-50
2023/01/28 09:37:50;;;;;;;7.90;5.85;;;;;;;0.44;85.22;92980.72;5060324;28;20036;-50
2023/01/28 09:40:19;;;;;;;4.78;4.05;;;;;;;0.42;85.20;92983.94;5057828;28;20100;-50
2023/01/28 09:42:59;;;;;;;7.57;4.83;;;;;;;0.56;84.81;92985.63;5056211;28;20518;-49
2023/01/28 09:45:47;;;;;;;9.70;5.95;;;;;;;0.63;84.33;92987.84;5053032;28;20107;-49
2023/01/28 09:48:21;;;;;;;7.07;5.63;;;;;;;0.77;84.12;92984.16;5058955;28;20554;-48
2023/01/28 09:50:53;;;;;;;6.43;4.78;;;;;;;0.97;82.36;92988.56;5065254;28;20039;-51
2023/01/28 09:53:22;;;;;;;3.45;3.15;;;;;;;0.78;82.63;92988.31;5061915;28;20571;-50
2023/01/28 09:56:03;;;;;;;4.05;3.65;;;;;;;0.91;82.19;92984.38;5095558;28;20023;-50
2023/01/28 09:58:28;;;;;;;5.28;3.88;;;;;;;0.95;81.97;92984.84;5066405;28;20037;-49
2023/01/28 10:01:18;;;;;;;3.58;3.25;;;;;;;0.91;81.55;92990.53;5061136;28;20100;-49
2023/01/28 10:03:52;;;;;;;4.10;3.70;;;;;;;0.86;81.92;92988.56;5063033;28;20097;-50
2023/01/28 10:06:20;;;;;;;3.47;3.10;;;;;;;0.78;83.18;92993.75;5065152;28;20523;-49
2023/01/28 10:09:24;;;;;;;5.43;3.80;;;;;;;0.70;82.24;92995.50;5057226;28;20020;-50
2023/01/28 10:11:58;;;;;;;4.78;4.22;;;;;;;0.76;82.49;92990.06;5063134;28;20027;-50
2023/01/28 10:14:26;;;;;;;5.82;4.10;;;;;;;0.61;83.36;93001.19;5063255;28;20033;-50
2023/01/28 10:16:51;;;;;;;5.68;4.40;;;;;;;0.68;83.04;92995.28;5065346;28;20098;-50
2023/01/28 10:19:29;;;;;;;4.68;4.03;;;;;;;0.46;83.45;92995.28;5064043;28;20052;-50
2023/01/28 10:22:00;;;;;;;4.30;3.60;;;;;;;0.68;83.61;92991.81;5066230;28;20059;-51
2023/01/28 10:24:44;;;;;;;5.57;4.40;;;;;;;0.81;81.93;92992.03;5071545;28;20044;-48
2023/01/28 10:27:15;;;;;;;3.90;3.47;;;;;;;0.69;82.27;92998.72;5069193;28;20051;-51
2023/01/28 10:29:45;;;;;;;11.38;6.82;;;;;;;0.59;82.11;92998.25;5069973;28;20069;-50
2023/01/28 10:32:13;;;;;;;5.07;4.22;;;;;;;0.47;83.64;92996.03;5068095;28;20029;-49
2023/01/28 10:34:38;;;;;;;6.27;4.00;;;;;;;0.35;82.94;92999.97;5065514;28;20032;-50
2023/01/28 10:37:04;;;;;;;5.25;4.18;;;;;;;0.43;83.33;93006.41;5071199;28;20067;-50
2023/01/28 10:39:29;;;;;;;3.80;3.22;;;;;;;0.41;83.35;93004.16;5064830;28;20037;-50
2023/01/28 10:41:55;;;;;;;4.80;4.18;;;;;;;0.48;83.07;92998.25;5060111;28;20076;-50
2023/01/28 10:44:30;;;;;;;4.28;3.58;;;;;;;0.26;83.87;92997.53;5060809;28;20020;-50
2023/01/28 10:46:59;;;;;;;6.72;5.15;;;;;;;0.22;83.94;92992.31;5070830;28;20020;-48
2023/01/28 10:49:27;;;;;;;;;;;;;;;0.42;83.61;93000.22;5069809;28;20332;-50
2023/01/28 10:51:53;;;;;;;9.38;5.00;;;;;;;0.31;83.30;92999.47;5093314;27;20541;-51
2023/01/28 10:54:27;;;;;;;15.30;8.00;;;;;;;0.16;83.91;92993.56;5070114;28;20070;-50
2023/01/28 10:56:58;;;;;;;9.60;6.28;;;;;;;0.22;83.97;92995.03;5069513;28;20086;-50
2023/01/28 10:59:33;;;;;;;18.90;10.82;;;;;;;0.50;83.54;92992.31;5075061;28;20028;-49
2023/01/28 11:02:04;;;;;;;6.75;5.60;;;;;;;0.46;83.01;92995.28;5057479;28;20154;-48
2023/01/28 11:04:34;;;;;;;14.32;7.18;;;;;;;0.38;82.98;92994.31;5070073;28;20029;-50
2023/01/28 11:07:04;;;;;;;9.23;7.15;;;;;;;0.57;83.43;92997.25;5069257;28;20024;-49
2023/01/28 11:09:34;;;;;;;8.50;4.43;;;;;;;0.59;82.22;92990.09;5059493;28;20497;-50
2023/01/28 11:12:10;;;;;;;6.13;4.03;;;;;;;0.70;82.25;92992.03;5067762;28;20495;-48
2023/01/28 11:14:36;;;;;;;12.88;7.22;;;;;;;0.77;82.22;92991.56;5069063;28;20092;-49
2023/01/28 11:17:01;;;;;;;6.13;4.50;;;;;;;0.86;80.49;92994.00;5064016;28;20737;-49
2023/01/28 11:19:36;;;;;;;20.30;8.73;;;;;;;0.86;81.28;92982.38;5066498;28;20557;-51
2023/01/28 11:22:02;;;;;;;17.65;9.88;;;;;;;1.12;80.85;92985.53;5062596;28;20642;-49
2023/01/28 11:24:29;;;;;;;17.73;9.23;;;;;;;1.40;80.19;92984.19;5061787;28;20032;-49
2023/01/28 11:26:57;;;;;;;18.98;8.93;;;;;;;1.42;79.35;92983.69;5064953;28;20382;-49
2023/01/28 11:29:33;;;;;;;12.32;6.97;;;;;;;1.46;79.14;92992.31;5067432;28;20587;-49
2023/01/28 11:31:59;;;;;;;18.17;8.15;;;;;;;1.61;78.23;92986.56;5061949;28;20456;-50
2023/01/28 11:34:32;;;;;;;23.50;11.27;;;;;;;1.64;77.53;92978.16;5071894;28;20496;-49
2023/01/28 11:37:15;;;;;;;17.25;8.02;;;;;;;1.71;76.71;92985.78;5059991;28;20032;-49
2023/01/28 11:39:40;;;;;;;20.27;10.55;;;;;;;1.63;77.39;92976.66;5063135;28;20405;-50
2023/01/28 11:42:18;;;;;;;11.38;5.80;;;;;;;1.59;76.85;92984.34;5070247;28;20024;-48
2023/01/28 11:44:44;;;;;;;5.75;3.28;;;;;;;1.64;75.86;92986.31;5064281;28;20033;-50
2023/01/28 11:47:34;;;;;;;5.32;3.65;;;;;;;1.82;75.66;92985.00;5070141;28;20604;-50
2023/01/28 11:50:22;;;;;;;9.88;5.88;;;;;;;2.20;75.55;92982.03;5059322;28;20389;-50
2023/01/28 11:53:05;;;;;;;3.63;3.25;;;;;;;2.14;73.64;92986.03;5059559;28;20055;-49
2023/01/28 11:55:52;;;;;;;4.32;3.78;;;;;;;2.29;74.13;92981.72;5059280;28;20052;-49
2023/01/28 11:58:38;;;;;;;6.22;4.32;;;;;;;2.62;71.94;92979.97;5069306;28;20028;-49
2023/01/28 12:01:06;;;;;;;4.97;3.67;;;;;;;2.46;72.69;92976.13;5058534;28;20078;-49
2023/01/28 12:03:44;;;;;;;10.60;6.67;;;;;;;2.79;71.63;92977.81;5066245;28;20032;-48
2023/01/28 12:06:31;;;;;;;5.38;3.88;;;;;;;3.02;71.13;92982.53;5059882;28;20108;-49
2023/01/28 12:09:09;;;;;;;5.10;3.35;;;;;;;3.19;69.71;92981.63;5056418;28;20508;-49
2023/01/28 12:12:11;;;;;;;5.10;4.03;;;;;;;3.17;69.08;92979.41;5057226;28;20064;-49
2023/01/28 12:15:25;;;;;;;3.40;3.10;;;;;;;3.08;70.24;92988.69;5055830;28;20432;-50